createdAt,value
2022-09-28T00:04:34.883Z,97501.48
2022-09-28T00:09:41.788Z,97492.73
2022-09-28T00:14:47.284Z,97488.91
2022-09-28T00:19:54.357Z,97488.61
2022-09-28T00:25:01.658Z,97487.20
2022-09-28T00:30:12.174Z,97485.30
2022-09-28T00:35:25.512Z,97489.36
2022-09-28T00:40:50.674Z,97491.39
2022-09-28T00:46:04.555Z,97495.44
2022-09-28T00:51:16.196Z,97502.14
2022-09-28T00:56:31.152Z,97495.52
2022-09-28T01:01:42.369Z,97493.77
2022-09-28T01:06:53.135Z,97488.05
2022-09-28T01:12:00.128Z,97482.11
2022-09-28T01:17:09.104Z,97477.93
2022-09-28T01:22:28.710Z,97479.59
2022-09-28T01:27:40.370Z,97480.48
2022-09-28T01:32:52.390Z,97481.90
2022-09-28T01:38:04.209Z,97482.64
2022-09-28T01:43:16.425Z,97479.68
2022-09-28T01:48:28.436Z,97487.60
2022-09-28T01:53:41.546Z,97492.86
2022-09-28T01:58:53.626Z,97503.89
2022-09-28T02:04:06.342Z,97507.67
2022-09-28T02:09:17.923Z,97510.02
2022-09-28T02:14:26.557Z,97511.61
2022-09-28T02:19:34.474Z,97518.52
2022-09-28T02:24:47.332Z,97517.99
2022-09-28T02:29:54.720Z,97511.00
2022-09-28T02:35:02.153Z,97516.77
2022-09-28T02:40:17.519Z,97524.55
2022-09-28T02:45:37.661Z,97532.02
2022-09-28T02:51:01.139Z,97537.04
2022-09-28T02:56:21.834Z,97532.94
2022-09-28T03:01:36.637Z,97534.82
2022-09-28T03:06:48.642Z,97535.42
2022-09-28T03:11:58.481Z,97527.11
2022-09-28T03:17:07.730Z,97527.25
2022-09-28T03:22:14.635Z,97522.32
2022-09-28T03:27:22.188Z,97521.83
2022-09-28T03:32:29.282Z,97525.95
2022-09-28T03:37:36.459Z,97522.77
2022-09-28T03:42:44.473Z,97516.40
2022-09-28T03:47:51.382Z,97521.29
2022-09-28T03:53:02.678Z,97529.41
2022-09-28T03:58:09.782Z,97537.13
2022-09-28T04:03:16.680Z,97529.94
2022-09-28T04:08:22.040Z,97536.23
2022-09-28T04:13:30.592Z,97532.56
2022-09-28T04:18:37.712Z,97535.13
2022-09-28T04:23:43.570Z,97533.42
2022-09-28T04:29:08.985Z,97533.27
2022-09-28T04:34:18.340Z,97540.56
2022-09-28T04:39:25.429Z,97542.67
2022-09-28T04:44:30.917Z,97545.27
2022-09-28T04:49:38.856Z,97543.69
2022-09-28T04:54:45.924Z,97547.92
2022-09-28T04:59:53.017Z,97552.78
2022-09-28T05:04:59.300Z,97560.17
2022-09-28T05:10:07.136Z,97565.36
2022-09-28T05:15:15.148Z,97563.02
2022-09-28T05:20:22.873Z,97566.66
2022-09-28T05:25:29.962Z,97564.40
2022-09-28T05:30:37.328Z,97568.06
2022-09-28T05:35:45.592Z,97562.44
2022-09-28T05:40:54.293Z,97556.89
2022-09-28T05:46:02.917Z,97553.77
2022-09-28T05:51:12.171Z,97558.23
2022-09-28T05:56:19.087Z,97565.96
2022-09-28T06:01:26.106Z,97570.29
2022-09-28T06:06:31.898Z,97566.59
2022-09-28T06:11:39.442Z,97574.92
2022-09-28T06:16:46.669Z,97575.13
2022-09-28T06:21:53.562Z,97573.55
2022-09-28T06:27:00.915Z,97574.21
2022-09-28T06:32:08.603Z,97570.54
2022-09-28T06:37:15.552Z,97575.81
2022-09-28T06:42:22.343Z,97579.29
2022-09-28T06:47:27.916Z,97574.73
2022-09-28T06:52:35.312Z,97562.28
2022-09-28T06:57:40.665Z,97551.48
2022-09-28T07:02:47.925Z,97547.26
2022-09-28T07:07:56.908Z,97556.55
2022-09-28T07:13:07.180Z,97569.27
2022-09-28T07:18:16.215Z,97577.31
2022-09-28T07:23:24.478Z,97581.88
2022-09-28T07:28:31.805Z,97583.39
2022-09-28T07:33:39.516Z,97567.84
2022-09-28T07:38:46.296Z,97567.23
2022-09-28T07:43:55.041Z,97577.76
2022-09-28T07:49:08.390Z,97576.29
2022-09-28T07:54:18.918Z,97569.77
2022-09-28T07:59:29.235Z,97576.33
2022-09-28T08:04:36.039Z,97576.73
2022-09-28T08:09:43.142Z,97576.38
2022-09-28T08:14:52.094Z,97578.41
2022-09-28T08:20:17.730Z,97582.60
2022-09-28T08:25:25.342Z,97582.36
2022-09-28T08:30:32.773Z,97574.85
2022-09-28T08:35:40.431Z,97572.20
2022-09-28T08:40:58.271Z,97568.11
2022-09-28T08:46:06.116Z,97566.25
2022-09-28T08:51:19.981Z,97563.77
2022-09-28T08:56:32.392Z,97563.15
2022-09-28T09:01:51.893Z,97563.56
2022-09-28T09:07:24.570Z,97565.42
2022-09-28T09:12:40.319Z,97573.95
2022-09-28T09:17:59.547Z,97575.02
2022-09-28T09:23:18.743Z,97578.70
2022-09-28T09:28:54.076Z,97578.66
2022-09-28T09:34:19.712Z,97571.89
2022-09-28T09:39:39.603Z,97576.30
2022-09-28T09:44:59.997Z,97568.02
2022-09-28T09:50:15.304Z,97574.04
2022-09-28T09:55:30.076Z,97579.41
2022-09-28T10:00:39.527Z,97572.33
2022-09-28T10:05:51.542Z,97565.11
2022-09-28T10:11:08.703Z,97561.47
2022-09-28T10:16:13.972Z,97553.80
2022-09-28T10:21:24.304Z,97553.91
2022-09-28T10:26:36.769Z,97546.23
2022-09-28T10:31:46.541Z,97542.11
2022-09-28T10:36:58.326Z,97541.63
2022-09-28T10:42:08.576Z,97536.52
2022-09-28T10:47:20.382Z,97537.36
2022-09-28T10:52:42.324Z,97529.55
2022-09-28T10:57:49.628Z,97523.52
2022-09-28T11:02:57.148Z,97520.85
2022-09-28T11:08:08.521Z,97512.17
2022-09-28T11:13:15.857Z,97506.52
2022-09-28T11:18:28.366Z,97499.05
2022-09-28T11:23:35.586Z,97485.89
2022-09-28T11:28:43.402Z,97470.70
2022-09-28T11:33:51.068Z,97472.10
2022-09-28T11:39:09.429Z,97467.20
2022-09-28T11:44:34.657Z,97464.59
2022-09-28T11:49:46.503Z,97455.48
2022-09-28T11:55:00.705Z,97455.63
2022-09-28T12:00:16.798Z,97457.48
2022-09-28T12:05:29.103Z,97451.66
2022-09-28T12:10:45.373Z,97445.63
2022-09-28T12:16:23.469Z,97435.84
2022-09-28T12:21:40.277Z,97417.70
2022-09-28T12:26:53.404Z,97416.65
2022-09-28T12:32:11.249Z,97407.33
2022-09-28T12:37:33.484Z,97414.11
2022-09-28T12:42:54.825Z,97405.20
2022-09-28T12:48:30.110Z,97405.19
2022-09-28T12:54:00.094Z,97397.14
2022-09-28T12:59:19.980Z,97385.40
2022-09-28T13:04:44.538Z,97390.32
2022-09-28T13:10:02.569Z,97380.10
2022-09-28T13:15:28.153Z,97382.31
2022-09-28T13:20:47.141Z,97382.04
2022-09-28T13:25:58.323Z,97384.86
2022-09-28T13:31:06.864Z,97377.80
2022-09-28T13:36:42.536Z,97373.66
2022-09-28T13:41:52.150Z,97379.73
2022-09-28T13:47:34.483Z,97371.85
2022-09-28T13:52:49.763Z,97361.59
2022-09-28T13:58:01.987Z,97361.09
2022-09-28T14:03:27.691Z,97383.33
2022-09-28T14:08:45.437Z,97390.96
2022-09-28T14:14:25.511Z,97396.46
2022-09-28T14:19:35.331Z,97399.33
2022-09-28T14:24:56.813Z,97395.33
2022-09-28T14:30:20.584Z,97390.05
2022-09-28T14:35:35.256Z,97366.75
2022-09-28T14:41:11.043Z,97367.49
2022-09-28T14:46:35.815Z,97368.51
2022-09-28T14:52:02.806Z,97352.33
2022-09-28T14:57:19.314Z,97343.30
2022-09-28T15:02:33.234Z,97344.52
2022-09-28T15:07:49.742Z,97344.88
2022-09-28T15:13:01.360Z,97348.48
2022-09-28T15:18:27.819Z,97353.74
2022-09-28T15:23:41.190Z,97363.71
2022-09-28T15:28:48.390Z,97354.93
2022-09-28T15:34:13.219Z,97364.33
2022-09-28T15:39:26.561Z,97360.17
2022-09-28T15:44:37.217Z,97362.05
2022-09-28T15:49:56.999Z,97359.70
2022-09-28T15:55:08.097Z,97358.90
2022-09-28T16:00:29.912Z,97353.75
2022-09-28T16:05:42.421Z,97353.16
2022-09-28T16:10:58.151Z,97354.03
2022-09-28T16:16:05.208Z,97352.70
2022-09-28T16:21:40.397Z,97354.50
2022-09-28T16:26:48.847Z,97354.36
2022-09-28T16:31:56.036Z,97359.55
2022-09-28T16:37:23.421Z,97361.48
2022-09-28T16:42:31.328Z,97359.48
2022-09-28T16:47:38.219Z,97361.38
2022-09-28T16:53:03.244Z,97361.81
2022-09-28T16:58:10.545Z,97362.13
2022-09-28T17:03:19.819Z,97365.88
2022-09-28T17:08:27.716Z,97362.75
2022-09-28T17:13:36.357Z,97361.18
2022-09-28T17:18:43.871Z,97363.98
2022-09-28T17:23:52.601Z,97362.13
2022-09-28T17:29:00.055Z,97368.48
2022-09-28T17:34:07.324Z,97371.86
2022-09-28T17:39:16.315Z,97365.95
2022-09-28T17:44:23.474Z,97370.60
2022-09-28T17:49:30.490Z,97370.23
2022-09-28T17:54:37.580Z,97374.50
2022-09-28T17:59:44.676Z,97376.79
2022-09-28T18:04:55.516Z,97378.77
2022-09-28T18:10:03.904Z,97386.67
2022-09-28T18:15:13.128Z,97393.89
2022-09-28T18:20:22.983Z,97399.59
2022-09-28T18:25:31.241Z,97403.97
2022-09-28T18:30:41.955Z,97407.90
2022-09-28T18:35:55.614Z,97407.52
2022-09-28T18:41:10.464Z,97405.75
2022-09-28T18:46:18.936Z,97410.05
2022-09-28T18:51:26.707Z,97414.25
2022-09-28T18:56:34.481Z,97422.44
2022-09-28T19:01:42.128Z,97435.60
2022-09-28T19:06:52.653Z,97441.46
2022-09-28T19:11:59.696Z,97441.86
2022-09-28T19:17:06.736Z,97446.92
2022-09-28T19:22:15.797Z,97449.85
2022-09-28T19:27:23.293Z,97455.95
2022-09-28T19:32:31.540Z,97455.96
2022-09-28T19:37:39.041Z,97453.17
2022-09-28T19:42:46.145Z,97458.87
2022-09-28T19:47:56.192Z,97465.52
2022-09-28T19:53:07.527Z,97463.05
2022-09-28T19:58:14.831Z,97470.04
2022-09-28T20:03:21.921Z,97469.75
2022-09-28T20:08:30.247Z,97474.56
2022-09-28T20:13:38.520Z,97479.16
2022-09-28T20:18:51.163Z,97482.52
2022-09-28T20:23:58.629Z,97483.55
2022-09-28T20:29:12.563Z,97497.58
2022-09-28T20:34:21.305Z,97514.05
2022-09-28T20:39:28.303Z,97521.05
2022-09-28T20:44:37.971Z,97536.50
2022-09-28T20:49:46.704Z,97541.37
2022-09-28T20:54:56.153Z,97546.84
2022-09-28T21:00:05.082Z,97546.62
2022-09-28T21:05:12.943Z,97550.98
2022-09-28T21:10:21.112Z,97545.55
2022-09-28T21:15:28.408Z,97544.51
2022-09-28T21:20:35.465Z,97537.63
2022-09-28T21:25:45.834Z,97535.21
2022-09-28T21:30:54.331Z,97531.27
2022-09-28T21:36:05.411Z,97538.64
2022-09-28T21:41:12.909Z,97540.89
2022-09-28T21:46:20.096Z,97539.07
2022-09-28T21:51:31.287Z,97541.10
2022-09-28T21:56:38.793Z,97547.52
2022-09-28T22:01:46.519Z,97550.17
2022-09-28T22:06:53.510Z,97555.32
2022-09-28T22:12:00.508Z,97560.21
2022-09-28T22:17:07.578Z,97565.28
2022-09-28T22:22:16.958Z,97577.43
2022-09-28T22:27:24.271Z,97580.67
2022-09-28T22:32:31.276Z,97591.67
2022-09-28T22:37:38.279Z,97602.73
2022-09-28T22:42:45.691Z,97608.62
2022-09-28T22:47:52.796Z,97612.32
2022-09-28T22:53:00.808Z,97607.48
2022-09-28T22:58:08.294Z,97609.66
2022-09-28T23:03:17.852Z,97608.10
2022-09-28T23:08:25.513Z,97608.42
2022-09-28T23:13:32.699Z,97614.71
2022-09-28T23:18:41.926Z,97619.80
2022-09-28T23:23:53.686Z,97615.29
2022-09-28T23:29:02.317Z,97600.10
2022-09-28T23:34:12.609Z,97614.55
2022-09-28T23:39:19.682Z,97626.39
2022-09-28T23:44:28.323Z,97622.60
2022-09-28T23:49:35.322Z,97627.69
2022-09-28T23:54:42.271Z,97623.73
2022-09-28T23:59:49.451Z,97624.14
